Cluster Springs, Virginia
Current Conditions -  °F | °C
As of 11:15 AM on Thursday 27 Nov 2014 (Local Time) from KW78 Reporting Station
Overcast Overcast  
Wind Chill: 36°   Ceiling: 2100
Heat Index: 41°   Visibility: 7mi
Dew Point: 39°   Wind: 8mph
Humidity: 93%   Direction: 320°NW
Pressure: 30.07"   Gusts: NA
Location:  36.62°N, 78.92°W
Report Text: KW78 271615Z AUTO 32007KT 7SM SCT008 OVC021 05/04 A3007 RMK AO1 T00520041
Loading
Personal Weather Stations






























Interactive Weather Map New forecast layout! Learn more

10-Day Weather Forecast

Advertisements
Track Severe Weather on mobile